sensor_id;sensor_type;location;lat;lon;timestamp;temperature;humidity
10304;DHT22;5197;48.152;8.590;2023-04-24T00:01:33;11.50;8.30
10304;DHT22;5197;48.152;8.590;2023-04-24T00:04:00;10.50;7.70
10304;DHT22;5197;48.152;8.590;2023-04-24T00:06:29;10.40;7.90
10304;DHT22;5197;48.152;8.590;2023-04-24T00:09:00;10.50;8.10
10304;DHT22;5197;48.152;8.590;2023-04-24T00:11:27;12.10;9.30
10304;DHT22;5197;48.152;8.590;2023-04-24T00:13:54;10.40;8.30
10304;DHT22;5197;48.152;8.590;2023-04-24T00:16:21;10.40;8.20
10304;DHT22;5197;48.152;8.590;2023-04-24T00:18:48;10.50;8.20
10304;DHT22;5197;48.152;8.590;2023-04-24T00:21:15;10.50;8.30
10304;DHT22;5197;48.152;8.590;2023-04-24T00:23:45;12.50;9.50
10304;DHT22;5197;48.152;8.590;2023-04-24T00:26:12;10.50;8.20
10304;DHT22;5197;48.152;8.590;2023-04-24T00:28:39;10.40;8.10
10304;DHT22;5197;48.152;8.590;2023-04-24T00:31:06;11.60;8.60
10304;DHT22;5197;48.152;8.590;2023-04-24T00:36:01;10.40;7.00
10304;DHT22;5197;48.152;8.590;2023-04-24T00:38:27;10.30;8.00
10304;DHT22;5197;48.152;8.590;2023-04-24T00:43:22;10.40;7.20
10304;DHT22;5197;48.152;8.590;2023-04-24T00:45:49;10.30;8.30
10304;DHT22;5197;48.152;8.590;2023-04-24T00:48:16;13.30;10.70
10304;DHT22;5197;48.152;8.590;2023-04-24T00:50:43;10.10;8.40
10304;DHT22;5197;48.152;8.590;2023-04-24T00:53:10;11.50;9.30
10304;DHT22;5197;48.152;8.590;2023-04-24T00:55:37;10.30;8.50
10304;DHT22;5197;48.152;8.590;2023-04-24T00:58:04;10.30;8.50
10304;DHT22;5197;48.152;8.590;2023-04-24T01:00:31;12.30;10.00
10304;DHT22;5197;48.152;8.590;2023-04-24T01:03:01;12.40;10.30
10304;DHT22;5197;48.152;8.590;2023-04-24T01:05:31;10.20;8.70
10304;DHT22;5197;48.152;8.590;2023-04-24T01:07:59;10.20;8.80
10304;DHT22;5197;48.152;8.590;2023-04-24T01:10:27;10.20;10.00
10304;DHT22;5197;48.152;8.590;2023-04-24T01:12:56;10.30;9.10
10304;DHT22;5197;48.152;8.590;2023-04-24T01:15:23;10.10;9.00
10304;DHT22;5197;48.152;8.590;2023-04-24T01:17:50;10.00;9.90
10304;DHT22;5197;48.152;8.590;2023-04-24T01:20:17;10.10;9.50
10304;DHT22;5197;48.152;8.590;2023-04-24T01:22:44;10.10;9.50
10304;DHT22;5197;48.152;8.590;2023-04-24T01:25:11;10.10;9.40
10304;DHT22;5197;48.152;8.590;2023-04-24T01:27:38;10.10;9.50
10304;DHT22;5197;48.152;8.590;2023-04-24T01:30:06;10.50;10.00
10304;DHT22;5197;48.152;8.590;2023-04-24T01:32:33;10.20;9.80
10304;DHT22;5197;48.152;8.590;2023-04-24T01:35:01;12.40;11.50
10304;DHT22;5197;48.152;8.590;2023-04-24T01:37:29;10.20;10.20
10304;DHT22;5197;48.152;8.590;2023-04-24T01:39:59;10.10;10.30
10304;DHT22;5197;48.152;8.590;2023-04-24T01:42:26;9.80;11.40
10304;DHT22;5197;48.152;8.590;2023-04-24T01:44:53;10.10;10.80
10304;DHT22;5197;48.152;8.590;2023-04-24T01:47:20;12.00;12.40
10304;DHT22;5197;48.152;8.590;2023-04-24T01:49:48;9.90;12.10
10304;DHT22;5197;48.152;8.590;2023-04-24T01:52:16;10.10;11.40
10304;DHT22;5197;48.152;8.590;2023-04-24T01:57:11;10.20;11.40
10304;DHT22;5197;48.152;8.590;2023-04-24T01:59:38;9.90;13.80
10304;DHT22;5197;48.152;8.590;2023-04-24T02:02:05;9.90;14.10
10304;DHT22;5197;48.152;8.590;2023-04-24T02:04:32;9.80;14.40
10304;DHT22;5197;48.152;8.590;2023-04-24T02:06:59;9.80;14.90
10304;DHT22;5197;48.152;8.590;2023-04-24T02:09:26;9.80;15.20
10304;DHT22;5197;48.152;8.590;2023-04-24T02:11:53;9.90;15.80
10304;DHT22;5197;48.152;8.590;2023-04-24T02:14:20;9.80;15.80
10304;DHT22;5197;48.152;8.590;2023-04-24T02:16:46;9.70;16.10
10304;DHT22;5197;48.152;8.590;2023-04-24T02:19:13;9.60;16.70
10304;DHT22;5197;48.152;8.590;2023-04-24T02:21:40;9.70;16.70
10304;DHT22;5197;48.152;8.590;2023-04-24T02:24:07;9.60;17.30
10304;DHT22;5197;48.152;8.590;2023-04-24T02:26:33;9.60;17.30
10304;DHT22;5197;48.152;8.590;2023-04-24T02:29:01;9.60;17.70
10304;DHT22;5197;48.152;8.590;2023-04-24T02:31:28;9.60;18.00
10304;DHT22;5197;48.152;8.590;2023-04-24T02:33:54;11.10;18.50
10304;DHT22;5197;48.152;8.590;2023-04-24T02:36:21;9.60;18.50
10304;DHT22;5197;48.152;8.590;2023-04-24T02:38:48;9.60;18.60
10304;DHT22;5197;48.152;8.590;2023-04-24T02:41:15;9.50;19.10
10304;DHT22;5197;48.152;8.590;2023-04-24T02:43:42;9.60;17.90
10304;DHT22;5197;48.152;8.590;2023-04-24T02:46:08;9.50;19.30
10304;DHT22;5197;48.152;8.590;2023-04-24T02:48:35;9.60;19.70
10304;DHT22;5197;48.152;8.590;2023-04-24T02:51:03;9.60;19.80
10304;DHT22;5197;48.152;8.590;2023-04-24T02:53:30;10.50;19.90
10304;DHT22;5197;48.152;8.590;2023-04-24T02:55:57;11.60;22.10
10304;DHT22;5197;48.152;8.590;2023-04-24T02:58:24;9.30;21.40
10304;DHT22;5197;48.152;8.590;2023-04-24T03:00:55;9.40;21.20
10304;DHT22;5197;48.152;8.590;2023-04-24T03:03:22;9.40;21.20
10304;DHT22;5197;48.152;8.590;2023-04-24T03:05:49;9.40;21.10
10304;DHT22;5197;48.152;8.590;2023-04-24T03:08:16;9.40;21.20
10304;DHT22;5197;48.152;8.590;2023-04-24T03:10:44;9.40;21.20
10304;DHT22;5197;48.152;8.590;2023-04-24T03:15:40;9.50;20.40
10304;DHT22;5197;48.152;8.590;2023-04-24T03:18:07;9.40;21.30
10304;DHT22;5197;48.152;8.590;2023-04-24T03:20:34;11.90;22.10
10304;DHT22;5197;48.152;8.590;2023-04-24T03:23:04;9.40;21.10
10304;DHT22;5197;48.152;8.590;2023-04-24T03:25:30;9.70;21.30
10304;DHT22;5197;48.152;8.590;2023-04-24T03:27:57;9.30;21.20
10304;DHT22;5197;48.152;8.590;2023-04-24T03:30:24;9.30;21.20
10304;DHT22;5197;48.152;8.590;2023-04-24T03:32:51;9.30;21.20
10304;DHT22;5197;48.152;8.590;2023-04-24T03:35:17;9.30;21.20
10304;DHT22;5197;48.152;8.590;2023-04-24T03:37:44;9.30;21.10
10304;DHT22;5197;48.152;8.590;2023-04-24T03:40:11;9.30;21.20
10304;DHT22;5197;48.152;8.590;2023-04-24T03:42:38;9.20;21.20
10304;DHT22;5197;48.152;8.590;2023-04-24T03:45:06;9.30;21.10
10304;DHT22;5197;48.152;8.590;2023-04-24T03:47:32;9.30;21.10
10304;DHT22;5197;48.152;8.590;2023-04-24T03:49:59;9.30;21.20
10304;DHT22;5197;48.152;8.590;2023-04-24T03:52:26;9.30;21.20
10304;DHT22;5197;48.152;8.590;2023-04-24T03:54:53;9.10;21.10
10304;DHT22;5197;48.152;8.590;2023-04-24T03:57:20;9.10;21.20
10304;DHT22;5197;48.152;8.590;2023-04-24T04:02:14;9.20;20.10
10304;DHT22;5197;48.152;8.590;2023-04-24T04:04:41;9.10;21.30
10304;DHT22;5197;48.152;8.590;2023-04-24T04:07:08;9.00;23.00
10304;DHT22;5197;48.152;8.590;2023-04-24T04:09:35;9.10;21.00
10304;DHT22;5197;48.152;8.590;2023-04-24T04:12:01;9.10;21.20
10304;DHT22;5197;48.152;8.590;2023-04-24T04:14:28;9.10;21.50
10304;DHT22;5197;48.152;8.590;2023-04-24T04:16:55;9.10;21.00
10304;DHT22;5197;48.152;8.590;2023-04-24T04:19:22;9.00;22.10
10304;DHT22;5197;48.152;8.590;2023-04-24T04:21:49;9.10;22.10
10304;DHT22;5197;48.152;8.590;2023-04-24T04:24:20;9.10;22.30
10304;DHT22;5197;48.152;8.590;2023-04-24T04:26:51;9.00;22.20
10304;DHT22;5197;48.152;8.590;2023-04-24T04:29:18;9.10;22.70
10304;DHT22;5197;48.152;8.590;2023-04-24T04:31:45;9.10;22.80
10304;DHT22;5197;48.152;8.590;2023-04-24T04:34:12;9.10;22.80
10304;DHT22;5197;48.152;8.590;2023-04-24T04:36:41;8.90;34.70
10304;DHT22;5197;48.152;8.590;2023-04-24T04:39:08;7.90;17.90
10304;DHT22;5197;48.152;8.590;2023-04-24T04:41:35;7.60;21.00
10304;DHT22;5197;48.152;8.590;2023-04-24T04:44:02;7.40;22.50
10304;DHT22;5197;48.152;8.590;2023-04-24T04:46:31;7.00;22.20
10304;DHT22;5197;48.152;8.590;2023-04-24T04:49:01;6.90;25.80
10304;DHT22;5197;48.152;8.590;2023-04-24T04:51:29;6.70;28.30
10304;DHT22;5197;48.152;8.590;2023-04-24T04:53:55;6.60;28.70
10304;DHT22;5197;48.152;8.590;2023-04-24T04:56:22;6.60;29.50
10304;DHT22;5197;48.152;8.590;2023-04-24T04:58:49;6.60;29.80
10304;DHT22;5197;48.152;8.590;2023-04-24T05:01:17;8.90;33.30
10304;DHT22;5197;48.152;8.590;2023-04-24T05:03:44;6.70;31.40
10304;DHT22;5197;48.152;8.590;2023-04-24T05:06:11;6.60;30.80
10304;DHT22;5197;48.152;8.590;2023-04-24T05:08:39;6.60;32.00
10304;DHT22;5197;48.152;8.590;2023-04-24T05:11:06;6.60;30.60
10304;DHT22;5197;48.152;8.590;2023-04-24T05:13:33;6.80;29.30
10304;DHT22;5197;48.152;8.590;2023-04-24T05:16:07;6.80;28.60
10304;DHT22;5197;48.152;8.590;2023-04-24T05:18:34;6.90;27.80
10304;DHT22;5197;48.152;8.590;2023-04-24T05:21:01;7.00;26.90
10304;DHT22;5197;48.152;8.590;2023-04-24T05:23:28;7.00;26.50
10304;DHT22;5197;48.152;8.590;2023-04-24T05:25:55;6.90;25.60
10304;DHT22;5197;48.152;8.590;2023-04-24T05:28:21;7.10;25.20
10304;DHT22;5197;48.152;8.590;2023-04-24T05:30:48;7.20;25.10
10304;DHT22;5197;48.152;8.590;2023-04-24T05:33:15;8.70;26.30
10304;DHT22;5197;48.152;8.590;2023-04-24T05:35:42;7.20;25.30
10304;DHT22;5197;48.152;8.590;2023-04-24T05:38:14;7.20;25.00
10304;DHT22;5197;48.152;8.590;2023-04-24T05:40:40;7.40;24.90
10304;DHT22;5197;48.152;8.590;2023-04-24T05:43:07;7.50;24.80
10304;DHT22;5197;48.152;8.590;2023-04-24T05:45:34;7.50;24.30
10304;DHT22;5197;48.152;8.590;2023-04-24T05:48:03;7.60;23.90
10304;DHT22;5197;48.152;8.590;2023-04-24T05:50:30;7.70;24.00
10304;DHT22;5197;48.152;8.590;2023-04-24T05:52:57;7.80;24.00
10304;DHT22;5197;48.152;8.590;2023-04-24T05:55:26;7.90;24.10
10304;DHT22;5197;48.152;8.590;2023-04-24T05:57:53;8.00;24.30
10304;DHT22;5197;48.152;8.590;2023-04-24T06:00:20;8.20;24.50
10304;DHT22;5197;48.152;8.590;2023-04-24T06:02:48;8.40;24.30
10304;DHT22;5197;48.152;8.590;2023-04-24T06:05:16;8.40;24.40
10304;DHT22;5197;48.152;8.590;2023-04-24T06:07:43;8.50;24.30
10304;DHT22;5197;48.152;8.590;2023-04-24T06:10:10;8.50;24.20
10304;DHT22;5197;48.152;8.590;2023-04-24T06:12:37;9.60;25.00
10304;DHT22;5197;48.152;8.590;2023-04-24T06:15:04;8.60;24.30
10304;DHT22;5197;48.152;8.590;2023-04-24T06:17:31;8.90;23.70
10304;DHT22;5197;48.152;8.590;2023-04-24T06:19:58;8.90;23.10
10304;DHT22;5197;48.152;8.590;2023-04-24T06:22:25;9.10;23.40
10304;DHT22;5197;48.152;8.590;2023-04-24T06:24:52;9.10;21.90
10304;DHT22;5197;48.152;8.590;2023-04-24T06:27:19;9.10;21.50
10304;DHT22;5197;48.152;8.590;2023-04-24T06:29:46;9.00;21.10
10304;DHT22;5197;48.152;8.590;2023-04-24T06:32:14;9.00;21.40
10304;DHT22;5197;48.152;8.590;2023-04-24T06:34:41;8.90;21.40
10304;DHT22;5197;48.152;8.590;2023-04-24T06:37:08;8.90;20.50
10304;DHT22;5197;48.152;8.590;2023-04-24T06:39:35;8.80;22.20
10304;DHT22;5197;48.152;8.590;2023-04-24T06:42:02;8.80;22.00
10304;DHT22;5197;48.152;8.590;2023-04-24T06:44:29;8.90;22.00
10304;DHT22;5197;48.152;8.590;2023-04-24T06:46:56;9.10;21.60
10304;DHT22;5197;48.152;8.590;2023-04-24T06:49:22;10.80;23.00
10304;DHT22;5197;48.152;8.590;2023-04-24T06:51:49;9.30;24.20
10304;DHT22;5197;48.152;8.590;2023-04-24T06:54:16;10.90;24.50
10304;DHT22;5197;48.152;8.590;2023-04-24T06:56:43;9.70;23.70
10304;DHT22;5197;48.152;8.590;2023-04-24T06:59:12;9.90;22.50
10304;DHT22;5197;48.152;8.590;2023-04-24T07:01:38;10.10;22.50
10304;DHT22;5197;48.152;8.590;2023-04-24T07:04:05;10.30;22.20
10304;DHT22;5197;48.152;8.590;2023-04-24T07:06:33;10.60;21.30
10304;DHT22;5197;48.152;8.590;2023-04-24T07:08:59;10.70;21.60
10304;DHT22;5197;48.152;8.590;2023-04-24T07:11:27;10.90;21.50
10304;DHT22;5197;48.152;8.590;2023-04-24T07:13:55;13.40;22.00
10304;DHT22;5197;48.152;8.590;2023-04-24T07:16:22;11.10;19.60
10304;DHT22;5197;48.152;8.590;2023-04-24T07:18:49;11.00;17.20
10304;DHT22;5197;48.152;8.590;2023-04-24T07:21:16;10.80;14.30
10304;DHT22;5197;48.152;8.590;2023-04-24T07:23:43;13.30;17.40
10304;DHT22;5197;48.152;8.590;2023-04-24T07:26:10;10.50;14.80
10304;DHT22;5197;48.152;8.590;2023-04-24T07:28:37;10.30;14.90
10304;DHT22;5197;48.152;8.590;2023-04-24T07:31:04;12.60;15.70
10304;DHT22;5197;48.152;8.590;2023-04-24T07:33:30;10.10;13.30
10304;DHT22;5197;48.152;8.590;2023-04-24T07:35:58;11.80;14.80
10304;DHT22;5197;48.152;8.590;2023-04-24T07:38:25;10.00;13.30
10304;DHT22;5197;48.152;8.590;2023-04-24T07:40:52;9.90;14.30
10304;DHT22;5197;48.152;8.590;2023-04-24T07:43:20;10.00;13.60
10304;DHT22;5197;48.152;8.590;2023-04-24T07:45:47;9.90;14.10
10304;DHT22;5197;48.152;8.590;2023-04-24T07:48:14;9.80;13.40
10304;DHT22;5197;48.152;8.590;2023-04-24T07:50:42;9.80;14.00
10304;DHT22;5197;48.152;8.590;2023-04-24T07:53:09;9.70;13.80
10304;DHT22;5197;48.152;8.590;2023-04-24T07:55:37;9.70;13.70
10304;DHT22;5197;48.152;8.590;2023-04-24T07:58:04;9.70;13.30
10304;DHT22;5197;48.152;8.590;2023-04-24T08:00:31;9.60;12.60
10304;DHT22;5197;48.152;8.590;2023-04-24T08:02:57;9.60;12.80
10304;DHT22;5197;48.152;8.590;2023-04-24T08:05:24;9.50;12.70
10304;DHT22;5197;48.152;8.590;2023-04-24T08:07:55;9.40;12.10
10304;DHT22;5197;48.152;8.590;2023-04-24T08:10:23;9.30;12.70
10304;DHT22;5197;48.152;8.590;2023-04-24T08:12:51;9.30;12.80
10304;DHT22;5197;48.152;8.590;2023-04-24T08:15:18;9.20;13.70
10304;DHT22;5197;48.152;8.590;2023-04-24T08:17:44;9.90;15.00
10304;DHT22;5197;48.152;8.590;2023-04-24T08:20:12;9.80;14.40
10304;DHT22;5197;48.152;8.590;2023-04-24T08:22:42;10.10;12.60
10304;DHT22;5197;48.152;8.590;2023-04-24T08:25:10;10.40;10.80
10304;DHT22;5197;48.152;8.590;2023-04-24T08:27:37;10.20;3.10
10304;DHT22;5197;48.152;8.590;2023-04-24T08:30:06;10.00;4.10
10304;DHT22;5197;48.152;8.590;2023-04-24T08:32:33;10.40;5.90
10304;DHT22;5197;48.152;8.590;2023-04-24T08:35:00;10.40;2.40
10304;DHT22;5197;48.152;8.590;2023-04-24T08:37:27;10.70;4.70
10304;DHT22;5197;48.152;8.590;2023-04-24T08:39:54;10.90;3.40
10304;DHT22;5197;48.152;8.590;2023-04-24T08:42:21;13.90;5.00
10304;DHT22;5197;48.152;8.590;2023-04-24T08:44:49;11.20;1.70
10304;DHT22;5197;48.152;8.590;2023-04-24T08:47:16;11.10;1.30
10304;DHT22;5197;48.152;8.590;2023-04-24T08:49:43;13.60;2.70
10304;DHT22;5197;48.152;8.590;2023-04-24T08:52:12;10.80;1.00
10304;DHT22;5197;48.152;8.590;2023-04-24T08:54:40;10.50;1.00
10304;DHT22;5197;48.152;8.590;2023-04-24T08:57:10;9.90;1.00
10304;DHT22;5197;48.152;8.590;2023-04-24T08:59:38;9.90;1.00
10304;DHT22;5197;48.152;8.590;2023-04-24T09:02:05;10.50;3.40
10304;DHT22;5197;48.152;8.590;2023-04-24T09:04:33;9.50;4.20
10304;DHT22;5197;48.152;8.590;2023-04-24T09:07:02;9.40;5.20
10304;DHT22;5197;48.152;8.590;2023-04-24T09:09:30;9.20;6.30
10304;DHT22;5197;48.152;8.590;2023-04-24T09:12:00;9.10;6.90
10304;DHT22;5197;48.152;8.590;2023-04-24T09:14:27;8.70;8.50
10304;DHT22;5197;48.152;8.590;2023-04-24T09:16:54;8.60;10.20
10304;DHT22;5197;48.152;8.590;2023-04-24T09:19:21;8.50;11.70
10304;DHT22;5197;48.152;8.590;2023-04-24T09:21:49;8.70;12.10
10304;DHT22;5197;48.152;8.590;2023-04-24T09:24:18;8.60;12.20
10304;DHT22;5197;48.152;8.590;2023-04-24T09:26:46;8.80;11.60
10304;DHT22;5197;48.152;8.590;2023-04-24T09:29:17;8.80;12.80
10304;DHT22;5197;48.152;8.590;2023-04-24T09:31:45;8.80;11.60
10304;DHT22;5197;48.152;8.590;2023-04-24T09:34:12;9.00;11.40
10304;DHT22;5197;48.152;8.590;2023-04-24T09:36:42;9.10;10.40
10304;DHT22;5197;48.152;8.590;2023-04-24T09:39:14;9.40;10.50
10304;DHT22;5197;48.152;8.590;2023-04-24T09:41:55;9.60;10.00
10304;DHT22;5197;48.152;8.590;2023-04-24T09:44:26;9.60;9.00
10304;DHT22;5197;48.152;8.590;2023-04-24T09:46:57;9.50;8.10
10304;DHT22;5197;48.152;8.590;2023-04-24T09:49:26;9.60;8.70
10304;DHT22;5197;48.152;8.590;2023-04-24T09:52:04;9.70;7.60
10304;DHT22;5197;48.152;8.590;2023-04-24T09:54:31;9.50;3.00
10304;DHT22;5197;48.152;8.590;2023-04-24T09:56:58;9.70;5.90
10304;DHT22;5197;48.152;8.590;2023-04-24T09:59:26;9.60;6.70
10304;DHT22;5197;48.152;8.590;2023-04-24T10:01:53;9.50;11.00
10304;DHT22;5197;48.152;8.590;2023-04-24T10:04:28;11.50;11.40
10304;DHT22;5197;48.152;8.590;2023-04-24T10:06:56;9.40;9.10
10304;DHT22;5197;48.152;8.590;2023-04-24T10:09:25;9.30;9.80
10304;DHT22;5197;48.152;8.590;2023-04-24T10:11:54;9.30;9.60
10304;DHT22;5197;48.152;8.590;2023-04-24T10:14:25;9.10;10.10
10304;DHT22;5197;48.152;8.590;2023-04-24T10:16:58;8.80;5.40
10304;DHT22;5197;48.152;8.590;2023-04-24T10:19:26;8.60;9.10
10304;DHT22;5197;48.152;8.590;2023-04-24T10:21:53;8.50;7.60
10304;DHT22;5197;48.152;8.590;2023-04-24T10:24:22;8.60;8.70
10304;DHT22;5197;48.152;8.590;2023-04-24T10:26:49;8.60;7.20
10304;DHT22;5197;48.152;8.590;2023-04-24T10:29:18;8.80;6.50
10304;DHT22;5197;48.152;8.590;2023-04-24T10:31:46;9.10;6.40
10304;DHT22;5197;48.152;8.590;2023-04-24T10:34:15;9.30;5.60
10304;DHT22;5197;48.152;8.590;2023-04-24T10:36:47;9.40;2.10
10304;DHT22;5197;48.152;8.590;2023-04-24T10:39:16;9.50;1.30
10304;DHT22;5197;48.152;8.590;2023-04-24T10:41:43;9.60;1.00
10304;DHT22;5197;48.152;8.590;2023-04-24T10:44:14;9.50;1.10
10304;DHT22;5197;48.152;8.590;2023-04-24T10:46:46;9.60;1.00
10304;DHT22;5197;48.152;8.590;2023-04-24T10:49:16;9.60;1.00
10304;DHT22;5197;48.152;8.590;2023-04-24T10:51:47;9.20;1.00
10304;DHT22;5197;48.152;8.590;2023-04-24T10:59:51;9.60;1.00
10304;DHT22;5197;48.152;8.590;2023-04-24T11:02:18;9.40;1.00
10304;DHT22;5197;48.152;8.590;2023-04-24T11:05:05;9.50;1.00
10304;DHT22;5197;48.152;8.590;2023-04-24T11:11:13;9.90;1.00
10304;DHT22;5197;48.152;8.590;2023-04-24T11:16:25;10.60;1.00
10304;DHT22;5197;48.152;8.590;2023-04-24T11:19:09;10.40;1.00
10304;DHT22;5197;48.152;8.590;2023-04-24T11:21:41;10.40;1.00
10304;DHT22;5197;48.152;8.590;2023-04-24T11:27:16;10.40;1.00
10304;DHT22;5197;48.152;8.590;2023-04-24T11:35:08;10.20;1.00
10304;DHT22;5197;48.152;8.590;2023-04-24T11:37:37;10.40;1.00
10304;DHT22;5197;48.152;8.590;2023-04-24T11:40:06;12.60;1.00
10304;DHT22;5197;48.152;8.590;2023-04-24T11:42:42;10.80;1.00
10304;DHT22;5197;48.152;8.590;2023-04-24T11:47:37;10.50;1.00
10304;DHT22;5197;48.152;8.590;2023-04-24T11:50:07;10.10;1.00
10304;DHT22;5197;48.152;8.590;2023-04-24T11:52:38;10.00;1.00
10304;DHT22;5197;48.152;8.590;2023-04-24T11:55:07;9.90;1.00
10304;DHT22;5197;48.152;8.590;2023-04-24T11:57:35;9.90;1.00
10304;DHT22;5197;48.152;8.590;2023-04-24T12:00:03;10.00;1.00
10304;DHT22;5197;48.152;8.590;2023-04-24T12:02:35;10.10;1.00
10304;DHT22;5197;48.152;8.590;2023-04-24T12:05:05;10.20;1.00
10304;DHT22;5197;48.152;8.590;2023-04-24T12:07:41;10.40;1.00
10304;DHT22;5197;48.152;8.590;2023-04-24T12:10:09;10.20;1.00
10304;DHT22;5197;48.152;8.590;2023-04-24T12:12:36;10.30;1.00
10304;DHT22;5197;48.152;8.590;2023-04-24T12:15:07;10.40;1.00
10304;DHT22;5197;48.152;8.590;2023-04-24T12:17:35;10.60;1.00
10304;DHT22;5197;48.152;8.590;2023-04-24T12:20:07;10.50;1.00
10304;DHT22;5197;48.152;8.590;2023-04-24T12:22:54;10.50;1.00
10304;DHT22;5197;48.152;8.590;2023-04-24T12:25:25;10.80;1.00
10304;DHT22;5197;48.152;8.590;2023-04-24T12:30:30;11.30;1.00
10304;DHT22;5197;48.152;8.590;2023-04-24T12:32:58;11.50;1.00
10304;DHT22;5197;48.152;8.590;2023-04-24T12:35:29;11.70;1.00
10304;DHT22;5197;48.152;8.590;2023-04-24T12:38:12;14.10;1.00
10304;DHT22;5197;48.152;8.590;2023-04-24T12:40:40;12.00;1.00
10304;DHT22;5197;48.152;8.590;2023-04-24T12:43:14;12.00;1.00
10304;DHT22;5197;48.152;8.590;2023-04-24T12:45:42;13.50;1.00
10304;DHT22;5197;48.152;8.590;2023-04-24T12:48:09;11.90;1.00
10304;DHT22;5197;48.152;8.590;2023-04-24T12:50:36;11.80;1.00
10304;DHT22;5197;48.152;8.590;2023-04-24T12:53:02;11.70;1.00
10304;DHT22;5197;48.152;8.590;2023-04-24T12:55:29;13.70;1.00
10304;DHT22;5197;48.152;8.590;2023-04-24T12:57:56;11.40;1.00
10304;DHT22;5197;48.152;8.590;2023-04-24T13:00:24;11.40;1.00
10304;DHT22;5197;48.152;8.590;2023-04-24T13:02:51;14.20;1.00
10304;DHT22;5197;48.152;8.590;2023-04-24T13:05:25;11.50;1.00
10304;DHT22;5197;48.152;8.590;2023-04-24T13:07:52;11.80;1.00
10304;DHT22;5197;48.152;8.590;2023-04-24T13:10:19;12.00;1.00
10304;DHT22;5197;48.152;8.590;2023-04-24T13:12:45;12.20;1.00
10304;DHT22;5197;48.152;8.590;2023-04-24T13:15:13;12.00;1.00
10304;DHT22;5197;48.152;8.590;2023-04-24T13:17:40;13.70;1.00
10304;DHT22;5197;48.152;8.590;2023-04-24T13:20:07;12.20;1.00
10304;DHT22;5197;48.152;8.590;2023-04-24T13:22:34;12.30;1.00
10304;DHT22;5197;48.152;8.590;2023-04-24T13:25:00;11.80;1.00
10304;DHT22;5197;48.152;8.590;2023-04-24T13:27:27;11.70;1.00
10304;DHT22;5197;48.152;8.590;2023-04-24T13:32:21;11.00;1.00
10304;DHT22;5197;48.152;8.590;2023-04-24T13:34:48;10.80;1.00
10304;DHT22;5197;48.152;8.590;2023-04-24T13:37:15;10.70;1.00
10304;DHT22;5197;48.152;8.590;2023-04-24T13:39:42;10.80;1.00
10304;DHT22;5197;48.152;8.590;2023-04-24T13:42:09;10.80;1.00
10304;DHT22;5197;48.152;8.590;2023-04-24T13:44:36;10.70;1.00
10304;DHT22;5197;48.152;8.590;2023-04-24T13:47:03;10.80;1.00
10304;DHT22;5197;48.152;8.590;2023-04-24T13:51:57;11.10;1.00
10304;DHT22;5197;48.152;8.590;2023-04-24T13:54:24;11.30;1.00
10304;DHT22;5197;48.152;8.590;2023-04-24T13:56:52;11.60;1.00
10304;DHT22;5197;48.152;8.590;2023-04-24T13:59:20;11.90;1.00
10304;DHT22;5197;48.152;8.590;2023-04-24T14:01:47;11.90;1.00
10304;DHT22;5197;48.152;8.590;2023-04-24T14:04:15;12.00;1.00
10304;DHT22;5197;48.152;8.590;2023-04-24T14:06:43;12.00;1.00
10304;DHT22;5197;48.152;8.590;2023-04-24T14:09:10;12.00;1.00
10304;DHT22;5197;48.152;8.590;2023-04-24T14:11:37;11.90;1.00
10304;DHT22;5197;48.152;8.590;2023-04-24T14:14:04;11.90;1.00
10304;DHT22;5197;48.152;8.590;2023-04-24T14:16:31;11.70;1.00
10304;DHT22;5197;48.152;8.590;2023-04-24T14:18:58;13.80;1.00
10304;DHT22;5197;48.152;8.590;2023-04-24T14:21:25;11.80;1.00
10304;DHT22;5197;48.152;8.590;2023-04-24T14:23:57;12.00;1.00
10304;DHT22;5197;48.152;8.590;2023-04-24T14:26:23;12.00;1.00
10304;DHT22;5197;48.152;8.590;2023-04-24T14:28:51;12.20;1.00
10304;DHT22;5197;48.152;8.590;2023-04-24T14:31:33;13.90;1.00
10304;DHT22;5197;48.152;8.590;2023-04-24T14:33:59;12.10;1.00
10304;DHT22;5197;48.152;8.590;2023-04-24T14:36:26;11.80;1.00
10304;DHT22;5197;48.152;8.590;2023-04-24T14:38:53;14.50;1.00
10304;DHT22;5197;48.152;8.590;2023-04-24T14:41:21;11.30;1.00
10304;DHT22;5197;48.152;8.590;2023-04-24T14:43:48;11.30;1.00
10304;DHT22;5197;48.152;8.590;2023-04-24T14:46:15;11.40;1.00
10304;DHT22;5197;48.152;8.590;2023-04-24T14:48:43;12.60;1.00
10304;DHT22;5197;48.152;8.590;2023-04-24T14:51:09;11.70;1.00
10304;DHT22;5197;48.152;8.590;2023-04-24T14:53:36;11.70;1.00
10304;DHT22;5197;48.152;8.590;2023-04-24T14:56:03;14.80;1.00
10304;DHT22;5197;48.152;8.590;2023-04-24T14:58:30;12.10;1.00
10304;DHT22;5197;48.152;8.590;2023-04-24T15:00:57;12.00;1.00
10304;DHT22;5197;48.152;8.590;2023-04-24T15:03:24;12.00;1.00
10304;DHT22;5197;48.152;8.590;2023-04-24T15:05:53;11.80;1.00
10304;DHT22;5197;48.152;8.590;2023-04-24T15:08:20;13.10;1.00
10304;DHT22;5197;48.152;8.590;2023-04-24T15:10:47;11.10;1.00
10304;DHT22;5197;48.152;8.590;2023-04-24T15:13:14;11.40;1.00
10304;DHT22;5197;48.152;8.590;2023-04-24T15:15:41;11.30;1.00
10304;DHT22;5197;48.152;8.590;2023-04-24T15:20:38;11.50;1.00
10304;DHT22;5197;48.152;8.590;2023-04-24T15:23:09;11.40;1.00
10304;DHT22;5197;48.152;8.590;2023-04-24T15:25:36;11.40;1.00
10304;DHT22;5197;48.152;8.590;2023-04-24T15:28:06;11.30;1.00
10304;DHT22;5197;48.152;8.590;2023-04-24T15:30:33;11.30;1.00
10304;DHT22;5197;48.152;8.590;2023-04-24T15:33:00;11.40;1.00
10304;DHT22;5197;48.152;8.590;2023-04-24T15:35:28;11.10;1.00
10304;DHT22;5197;48.152;8.590;2023-04-24T15:37:55;11.60;1.00
10304;DHT22;5197;48.152;8.590;2023-04-24T15:42:50;10.30;1.00
10304;DHT22;5197;48.152;8.590;2023-04-24T15:45:16;12.10;1.00
10304;DHT22;5197;48.152;8.590;2023-04-24T15:47:44;9.70;1.00
10304;DHT22;5197;48.152;8.590;2023-04-24T15:50:12;9.20;1.00
10304;DHT22;5197;48.152;8.590;2023-04-24T15:52:42;8.90;3.30
10304;DHT22;5197;48.152;8.590;2023-04-24T15:55:09;8.60;5.70
10304;DHT22;5197;48.152;8.590;2023-04-24T15:57:36;8.60;6.60
10304;DHT22;5197;48.152;8.590;2023-04-24T16:00:04;8.40;8.80
10304;DHT22;5197;48.152;8.590;2023-04-24T16:02:36;8.40;10.50
10304;DHT22;5197;48.152;8.590;2023-04-24T16:05:05;8.30;13.00
10304;DHT22;5197;48.152;8.590;2023-04-24T16:07:33;8.30;11.90
10304;DHT22;5197;48.152;8.590;2023-04-24T16:10:00;8.50;10.50
10304;DHT22;5197;48.152;8.590;2023-04-24T16:12:27;8.80;9.20
10304;DHT22;5197;48.152;8.590;2023-04-24T16:14:54;9.10;7.20
10304;DHT22;5197;48.152;8.590;2023-04-24T16:17:21;9.60;5.50
10304;DHT22;5197;48.152;8.590;2023-04-24T16:19:48;9.80;3.10
10304;DHT22;5197;48.152;8.590;2023-04-24T16:22:16;9.50;4.00
10304;DHT22;5197;48.152;8.590;2023-04-24T16:24:43;9.60;4.00
10304;DHT22;5197;48.152;8.590;2023-04-24T16:27:13;10.20;3.40
10304;DHT22;5197;48.152;8.590;2023-04-24T16:29:40;9.70;2.70
10304;DHT22;5197;48.152;8.590;2023-04-24T16:32:08;10.00;2.50
10304;DHT22;5197;48.152;8.590;2023-04-24T16:34:36;10.00;2.00
10304;DHT22;5197;48.152;8.590;2023-04-24T16:37:04;10.40;1.00
10304;DHT22;5197;48.152;8.590;2023-04-24T16:39:33;13.10;3.50
10304;DHT22;5197;48.152;8.590;2023-04-24T16:42:02;10.40;1.60
10304;DHT22;5197;48.152;8.590;2023-04-24T16:44:30;10.30;1.50
10304;DHT22;5197;48.152;8.590;2023-04-24T16:46:57;10.20;1.60
10304;DHT22;5197;48.152;8.590;2023-04-24T16:49:24;9.90;2.60
10304;DHT22;5197;48.152;8.590;2023-04-24T16:51:56;10.00;2.10
10304;DHT22;5197;48.152;8.590;2023-04-24T16:54:23;11.80;4.00